Time,TemperatureF,DewpointF,PressureIn,WindDirection,WindDirectionDegrees,WindSpeedMPH,WindSpeedGustMPH,Humidity,HourlyPrecipIn,Conditions,Clouds,dailyrainin,SoftwareType,DateUTC
2013-04-15 00:02:00,28.0,26.0,29.90,SE,129,1.0,2.0,93,0.00,,,0.02,,2013-04-15 07:02:00,
2013-04-15 00:42:00,28.0,27.0,29.90,East,92,0.0,3.0,94,0.00,,,0.02,,2013-04-15 07:42:00,
2013-04-15 00:53:00,28.0,27.0,29.90,East,92,0.0,2.0,94,0.00,,,0.02,,2013-04-15 07:53:00,
2013-04-15 01:02:00,28.0,27.0,29.90,East,92,0.0,1.0,94,0.00,,,0.02,,2013-04-15 08:02:00,
2013-04-15 01:12:00,28.0,27.0,29.90,East,92,0.0,1.0,94,0.00,,,0.02,,2013-04-15 08:12:00,
2013-04-15 01:21:00,28.0,27.0,29.90,East,92,0.0,1.0,94,0.00,,,0.02,,2013-04-15 08:21:00,
2013-04-15 01:32:00,28.0,27.0,29.90,East,92,0.0,2.0,94,0.00,,,0.02,,2013-04-15 08:32:00,
2013-04-15 01:42:00,28.0,27.0,29.90,East,92,0.0,2.0,94,0.00,,,0.02,,2013-04-15 08:42:00,
2013-04-15 01:52:00,28.0,27.0,29.90,East,92,0.0,1.0,94,0.00,,,0.02,,2013-04-15 08:52:00,
2013-04-15 02:02:00,29.0,27.0,29.90,East,92,0.0,0.0,94,0.00,,,0.02,,2013-04-15 09:02:00,
2013-04-15 02:12:00,29.0,27.0,29.90,East,92,0.0,0.0,94,0.00,,,0.02,,2013-04-15 09:12:00,
2013-04-15 02:22:00,29.0,27.0,29.90,East,92,0.0,0.0,94,0.00,,,0.02,,2013-04-15 09:22:00,
2013-04-15 02:32:00,29.0,27.0,29.89,East,92,0.0,2.0,94,0.00,,,0.02,,2013-04-15 09:32:00,
2013-04-15 02:42:00,29.0,27.0,29.89,East,92,0.0,2.0,94,0.00,,,0.02,,2013-04-15 09:42:00,
2013-04-15 02:53:00,28.0,26.0,29.89,East,92,0.0,0.0,93,0.00,,,0.02,,2013-04-15 09:53:00,
2013-04-15 03:02:00,28.0,26.0,29.88,East,92,0.0,0.0,93,0.00,,,0.02,,2013-04-15 10:02:00,
2013-04-15 03:12:00,28.0,26.0,29.88,East,92,0.0,0.0,93,0.00,,,0.02,,2013-04-15 10:12:00,
2013-04-15 03:22:00,28.0,26.0,29.88,East,92,0.0,0.0,93,0.00,,,0.02,,2013-04-15 10:22:00,
2013-04-15 03:32:00,28.0,26.0,29.88,East,92,0.0,0.0,93,0.00,,,0.02,,2013-04-15 10:32:00,
2013-04-15 03:42:00,28.0,26.0,29.88,East,92,0.0,0.0,93,0.00,,,0.02,,2013-04-15 10:42:00,
2013-04-15 03:52:00,28.0,26.0,29.88,East,92,0.0,0.0,93,0.00,,,0.02,,2013-04-15 10:52:00,
2013-04-15 04:02:00,28.0,27.0,29.88,East,92,0.0,1.0,94,0.00,,,0.02,,2013-04-15 11:02:00,
2013-04-15 04:12:00,28.0,27.0,29.88,East,92,0.0,1.0,94,0.00,,,0.02,,2013-04-15 11:12:00,
2013-04-15 04:22:00,28.0,27.0,29.88,East,92,0.0,0.0,94,0.00,,,0.02,,2013-04-15 11:22:00,
2013-04-15 04:32:00,28.0,27.0,29.88,East,92,0.0,0.0,94,0.00,,,0.02,,2013-04-15 11:32:00,
2013-04-15 04:42:00,28.0,27.0,29.88,East,92,0.0,0.0,94,0.00,,,0.02,,2013-04-15 11:42:00,
2013-04-15 04:53:00,28.0,27.0,29.88,East,92,0.0,0.0,94,0.00,,,0.02,,2013-04-15 11:53:00,
2013-04-15 05:02:00,28.0,27.0,29.88,East,92,0.0,0.0,94,0.00,,,0.02,,2013-04-15 12:02:00,
2013-04-15 05:12:00,28.0,27.0,29.88,East,92,0.0,0.0,94,0.00,,,0.02,,2013-04-15 12:12:00,
2013-04-15 05:22:00,28.0,27.0,29.88,East,92,0.0,2.0,94,0.00,,,0.02,,2013-04-15 12:22:00,
2013-04-15 05:32:00,28.0,27.0,29.88,East,92,0.0,1.0,94,0.00,,,0.02,,2013-04-15 12:32:00,
2013-04-15 05:42:00,28.0,27.0,29.88,East,92,0.0,1.0,94,0.00,,,0.02,,2013-04-15 12:42:00,
2013-04-15 05:53:00,28.0,27.0,29.88,East,92,0.0,0.0,94,0.00,,,0.02,,2013-04-15 12:53:00,
2013-04-15 06:02:00,28.0,27.0,29.88,East,92,0.0,0.0,94,0.00,,,0.02,,2013-04-15 13:02:00,
2013-04-15 06:12:00,28.0,27.0,29.88,East,92,0.0,0.0,94,0.00,,,0.02,,2013-04-15 13:12:00,
2013-04-15 06:22:00,28.0,27.0,29.88,East,92,0.0,0.0,94,0.00,,,0.02,,2013-04-15 13:22:00,
2013-04-15 06:32:00,28.0,27.0,29.88,East,92,0.0,1.0,94,0.00,,,0.02,,2013-04-15 13:32:00,
2013-04-15 06:42:00,28.0,27.0,29.88,East,92,0.0,1.0,94,0.00,,,0.02,,2013-04-15 13:42:00,
2013-04-15 06:53:00,27.0,26.0,29.88,East,92,0.0,2.0,94,0.00,,,0.02,,2013-04-15 13:53:00,
2013-04-15 07:02:00,27.0,26.0,29.88,East,92,0.0,2.0,94,0.00,,,0.02,,2013-04-15 14:02:00,
2013-04-15 07:12:00,27.0,26.0,29.88,East,92,0.0,2.0,94,0.00,,,0.02,,2013-04-15 14:12:00,
2013-04-15 07:22:00,27.0,26.0,29.88,East,92,0.0,0.0,94,0.00,,,0.02,,2013-04-15 14:22:00,
2013-04-15 07:32:00,27.0,26.0,29.88,East,92,0.0,0.0,94,0.00,,,0.02,,2013-04-15 14:32:00,
2013-04-15 07:43:00,27.0,26.0,29.88,East,92,0.0,0.0,94,0.00,,,0.02,,2013-04-15 14:43:00,
2013-04-15 07:54:00,28.0,27.0,29.89,East,92,0.0,0.0,94,0.00,,,0.02,,2013-04-15 14:54:00,
2013-04-15 08:02:00,28.0,27.0,29.89,East,92,0.0,0.0,94,0.00,,,0.02,,2013-04-15 15:02:00,
2013-04-15 08:12:00,28.0,27.0,29.89,East,92,0.0,0.0,94,0.00,,,0.02,,2013-04-15 15:12:00,
2013-04-15 08:22:00,29.0,27.0,29.90,East,92,0.0,0.0,93,0.00,,,0.02,,2013-04-15 15:22:00,
2013-04-15 08:33:00,30.0,28.0,29.90,East,92,0.0,2.0,92,0.00,,,0.02,,2013-04-15 15:33:00,
2013-04-15 08:43:00,30.0,28.0,29.90,East,92,0.0,2.0,92,0.00,,,0.02,,2013-04-15 15:43:00,
2013-04-15 08:53:00,30.0,27.0,29.90,East,90,0.0,3.0,90,0.00,,,0.02,,2013-04-15 15:53:00,
2013-04-15 09:12:00,31.0,28.0,29.90,ENE,74,1.0,3.0,89,0.00,,,0.02,,2013-04-15 16:12:00,
2013-04-15 09:22:00,31.0,28.0,29.89,NE,49,5.0,8.0,88,0.00,,,0.02,,2013-04-15 16:22:00,
2013-04-15 09:32:00,31.0,28.0,29.89,NE,49,5.0,8.0,88,0.00,,,0.02,,2013-04-15 16:32:00,
2013-04-15 09:43:00,31.0,28.0,29.89,NE,49,5.0,8.0,88,0.00,,,0.02,,2013-04-15 16:43:00,
2013-04-15 09:52:00,32.0,28.0,29.89,ENE,63,7.0,10.0,85,0.00,,,0.02,,2013-04-15 16:52:00,
2013-04-15 10:02:00,32.0,28.0,29.89,ENE,65,7.0,9.0,84,0.00,,,0.02,,2013-04-15 17:02:00,
2013-04-15 10:14:00,32.0,28.0,29.89,ENE,65,7.0,9.0,84,0.00,,,0.02,,2013-04-15 17:14:00,
2013-04-15 10:21:00,31.0,27.0,29.89,NNE,17,5.0,11.0,86,0.00,,,0.02,,2013-04-15 17:21:00,
2013-04-15 10:32:00,30.0,28.0,29.90,ENE,61,8.0,14.0,91,0.00,,,0.02,,2013-04-15 17:32:00,
2013-04-15 10:43:00,30.0,28.0,29.90,ENE,61,8.0,14.0,91,0.00,,,0.02,,2013-04-15 17:43:00,
2013-04-15 10:52:00,32.0,30.0,29.90,NNE,28,9.0,14.0,91,0.01,,,0.03,,2013-04-15 17:52:00,
2013-04-15 11:02:00,33.0,30.0,29.90,NNE,13,11.0,19.0,87,0.01,,,0.03,,2013-04-15 18:02:00,
2013-04-15 11:12:00,33.0,30.0,29.90,NNE,13,11.0,19.0,87,0.01,,,0.03,,2013-04-15 18:12:00,
2013-04-15 11:22:00,33.0,30.0,29.91,ENE,64,9.0,16.0,87,0.02,,,0.04,,2013-04-15 18:22:00,
2013-04-15 11:32:00,33.0,29.0,29.91,NE,50,9.0,15.0,84,0.03,,,0.05,,2013-04-15 18:32:00,
2013-04-15 11:42:00,33.0,29.0,29.91,NE,50,9.0,15.0,84,0.03,,,0.05,,2013-04-15 18:42:00,
2013-04-15 11:52:00,33.0,29.0,29.91,NE,55,9.0,15.0,85,0.03,,,0.06,,2013-04-15 18:52:00,
2013-04-15 12:02:00,34.0,29.0,29.91,NE,50,8.0,17.0,82,0.04,,,0.07,,2013-04-15 19:02:00,
2013-04-15 12:12:00,34.0,29.0,29.91,NE,50,8.0,17.0,82,0.04,,,0.07,,2013-04-15 19:12:00,
2013-04-15 12:21:00,35.0,30.0,29.91,NE,53,10.0,18.0,81,0.05,,,0.09,,2013-04-15 19:21:00,
2013-04-15 12:34:00,35.0,29.0,29.92,ENE,67,11.0,15.0,78,0.05,,,0.10,,2013-04-15 19:34:00,
2013-04-15 13:02:00,35.0,30.0,29.92,North,11,7.0,13.0,82,0.06,,,0.13,,2013-04-15 20:02:00,
2013-04-15 13:11:00,35.0,30.0,29.92,North,11,7.0,13.0,82,0.06,,,0.13,,2013-04-15 20:11:00,
2013-04-15 13:22:00,36.0,30.0,29.92,NNW,339,7.0,19.0,78,0.05,,,0.14,,2013-04-15 20:22:00,
2013-04-15 13:32:00,36.0,29.0,29.92,ENE,65,7.0,16.0,76,0.05,,,0.15,,2013-04-15 20:32:00,
2013-04-15 13:42:00,36.0,29.0,29.92,ENE,65,7.0,16.0,76,0.05,,,0.15,,2013-04-15 20:42:00,
2013-04-15 13:52:00,37.0,27.0,29.92,ENE,58,4.0,16.0,66,0.03,,,0.15,,2013-04-15 20:52:00,
2013-04-15 14:02:00,39.0,29.0,29.92,ENE,77,9.0,17.0,66,0.02,,,0.15,,2013-04-15 21:02:00,
2013-04-15 14:12:00,39.0,29.0,29.92,ENE,77,9.0,17.0,66,0.02,,,0.15,,2013-04-15 21:12:00,
2013-04-15 14:22:00,39.0,26.0,29.92,NE,48,7.0,15.0,60,0.01,,,0.15,,2013-04-15 21:22:00,
2013-04-15 14:32:00,39.0,26.0,29.92,ENE,62,13.0,17.0,60,0.00,,,0.15,,2013-04-15 21:32:00,
2013-04-15 14:42:00,39.0,26.0,29.92,ENE,62,13.0,17.0,60,0.00,,,0.15,,2013-04-15 21:42:00,
2013-04-15 14:53:00,38.0,27.0,29.93,North,360,5.0,19.0,63,0.00,,,0.15,,2013-04-15 21:53:00,
2013-04-15 15:02:00,37.0,27.0,29.93,NNE,24,8.0,13.0,68,0.00,,,0.15,,2013-04-15 22:02:00,
2013-04-15 15:13:00,37.0,27.0,29.93,NNE,24,8.0,13.0,68,0.00,,,0.15,,2013-04-15 22:13:00,
2013-04-15 15:22:00,39.0,29.0,29.94,NE,34,6.0,13.0,66,0.00,,,0.15,,2013-04-15 22:22:00,
2013-04-15 15:32:00,41.0,29.0,29.94,NE,51,9.0,22.0,62,0.00,,,0.15,,2013-04-15 22:32:00,
2013-04-15 15:42:00,41.0,29.0,29.94,NE,51,9.0,22.0,62,0.00,,,0.15,,2013-04-15 22:42:00,
2013-04-15 15:52:00,40.0,27.0,29.94,NE,36,12.0,19.0,60,0.00,,,0.15,,2013-04-15 22:52:00,
2013-04-15 16:02:00,40.0,27.0,29.94,NE,55,11.0,22.0,60,0.00,,,0.15,,2013-04-15 23:02:00,
2013-04-15 16:12:00,40.0,27.0,29.94,NE,55,11.0,22.0,60,0.00,,,0.15,,2013-04-15 23:12:00,
2013-04-15 16:22:00,40.0,25.0,29.94,ENE,77,13.0,19.0,55,0.00,,,0.15,,2013-04-15 23:22:00,
2013-04-15 16:32:00,39.0,25.0,29.95,NE,34,14.0,22.0,56,0.00,,,0.15,,2013-04-15 23:32:00,
2013-04-15 16:42:00,39.0,25.0,29.95,NE,34,14.0,22.0,56,0.00,,,0.15,,2013-04-15 23:42:00,
2013-04-15 16:52:00,40.0,27.0,29.95,NE,42,12.0,23.0,60,0.00,,,0.15,,2013-04-15 23:52:00,
2013-04-15 17:02:00,38.0,25.0,29.96,ENE,57,12.0,19.0,59,0.00,,,0.15,,2013-04-16 00:02:00,
2013-04-15 17:12:00,38.0,25.0,29.96,ENE,57,12.0,19.0,59,0.00,,,0.15,,2013-04-16 00:12:00,
2013-04-15 17:22:00,37.0,25.0,29.96,ENE,71,16.0,22.0,62,0.00,,,0.15,,2013-04-16 00:22:00,
2013-04-15 17:31:00,36.0,28.0,29.98,NE,53,18.0,29.0,73,0.00,,,0.14,,2013-04-16 00:31:00,
2013-04-15 17:42:00,36.0,28.0,29.98,NE,53,18.0,29.0,73,0.00,,,0.14,,2013-04-16 00:42:00,
2013-04-15 17:52:00,35.0,29.0,29.98,NE,53,16.0,23.0,78,0.00,,,0.14,,2013-04-16 00:52:00,
2013-04-15 18:02:00,35.0,27.0,29.99,ENE,63,9.0,19.0,72,0.00,,,0.14,,2013-04-16 01:02:00,
2013-04-15 18:12:00,35.0,27.0,29.99,ENE,63,9.0,19.0,72,0.00,,,0.14,,2013-04-16 01:12:00,
2013-04-15 18:22:00,36.0,27.0,29.99,ENE,63,9.0,17.0,70,0.00,,,0.14,,2013-04-16 01:22:00,
2013-04-15 18:32:00,35.0,26.0,30.00,NNE,12,11.0,20.0,70,0.00,,,0.13,,2013-04-16 01:32:00,
2013-04-15 18:42:00,35.0,26.0,30.00,NNE,12,11.0,20.0,70,0.00,,,0.13,,2013-04-16 01:42:00,
2013-04-15 18:52:00,34.0,25.0,30.00,NE,36,8.0,14.0,68,0.00,,,0.13,,2013-04-16 01:52:00,
2013-04-15 19:02:00,35.0,24.0,30.01,ENE,65,11.0,19.0,64,0.00,,,0.13,,2013-04-16 02:02:00,
2013-04-15 19:12:00,35.0,24.0,30.01,ENE,65,11.0,19.0,64,0.00,,,0.13,,2013-04-16 02:12:00,
2013-04-15 19:22:00,34.0,24.0,30.02,NE,55,11.0,20.0,67,0.00,,,0.13,,2013-04-16 02:22:00,
2013-04-15 19:32:00,31.0,26.0,30.03,ENE,71,14.0,25.0,83,0.00,,,0.13,,2013-04-16 02:32:00,
2013-04-15 19:42:00,31.0,26.0,30.03,ENE,71,14.0,25.0,83,0.00,,,0.13,,2013-04-16 02:42:00,
2013-04-15 19:51:00,31.0,27.0,30.03,ENE,65,12.0,17.0,85,0.00,,,0.13,,2013-04-16 02:51:00,
2013-04-15 20:02:00,31.0,28.0,30.03,NNE,27,8.0,14.0,87,0.00,,,0.13,,2013-04-16 03:02:00,
2013-04-15 20:12:00,31.0,28.0,30.03,NNE,27,8.0,14.0,87,0.00,,,0.13,,2013-04-16 03:12:00,
2013-04-15 20:22:00,30.0,28.0,30.03,NE,53,12.0,21.0,92,0.00,,,0.13,,2013-04-16 03:22:00,
2013-04-15 20:33:00,29.0,27.0,30.04,ENE,59,6.0,12.0,93,0.00,,,0.13,,2013-04-16 03:33:00,
2013-04-15 20:43:00,29.0,27.0,30.04,ENE,59,6.0,12.0,93,0.00,,,0.13,,2013-04-16 03:43:00,
2013-04-15 20:52:00,29.0,27.0,30.05,NE,34,3.0,8.0,93,0.00,,,0.13,,2013-04-16 03:52:00,
2013-04-15 21:02:00,29.0,27.0,30.06,NNE,24,3.0,5.0,93,0.00,,,0.13,,2013-04-16 04:02:00,
2013-04-15 21:12:00,29.0,27.0,30.06,NNE,24,3.0,5.0,93,0.00,,,0.13,,2013-04-16 04:12:00,
2013-04-15 21:23:00,29.0,27.0,30.07,NNE,28,4.0,10.0,93,0.00,,,0.13,,2013-04-16 04:23:00,
2013-04-15 21:32:00,29.0,27.0,30.07,NNE,28,4.0,10.0,93,0.00,,,0.13,,2013-04-16 04:32:00,
2013-04-15 21:42:00,29.0,27.0,30.07,NNE,28,4.0,10.0,93,0.00,,,0.13,,2013-04-16 04:42:00,
2013-04-15 21:53:00,29.0,27.0,30.08,NE,39,3.0,8.0,91,0.00,,,0.13,,2013-04-16 04:53:00,
2013-04-15 22:02:00,29.0,27.0,30.09,NNE,30,3.0,7.0,91,0.00,,,0.13,,2013-04-16 05:02:00,
2013-04-15 22:12:00,29.0,27.0,30.09,NNE,30,3.0,7.0,91,0.00,,,0.13,,2013-04-16 05:12:00,
2013-04-15 22:22:00,29.0,27.0,30.09,NNE,19,2.0,6.0,91,0.00,,,0.13,,2013-04-16 05:22:00,
2013-04-15 22:32:00,29.0,27.0,30.10,NE,49,3.0,7.0,91,0.00,,,0.13,,2013-04-16 05:32:00,
2013-04-15 22:42:00,29.0,27.0,30.10,NE,49,3.0,7.0,91,0.00,,,0.13,,2013-04-16 05:42:00,
2013-04-15 22:51:00,29.0,27.0,30.10,NE,47,1.0,6.0,91,0.00,,,0.13,,2013-04-16 05:51:00,
2013-04-15 23:02:00,29.0,27.0,30.10,NE,53,3.0,6.0,91,0.00,,,0.13,,2013-04-16 06:02:00,
2013-04-15 23:12:00,29.0,27.0,30.10,NE,53,3.0,6.0,91,0.00,,,0.13,,2013-04-16 06:12:00,
2013-04-15 23:21:00,28.0,26.0,30.10,NE,53,8.0,12.0,92,0.00,,,0.13,,2013-04-16 06:21:00,
2013-04-15 23:32:00,28.0,26.0,30.10,NNE,29,4.0,10.0,91,0.00,,,0.13,,2013-04-16 06:32:00,
2013-04-15 23:42:00,28.0,26.0,30.10,NNE,29,4.0,10.0,91,0.00,,,0.13,,2013-04-16 06:42:00,
2013-04-15 23:51:00,28.0,26.0,30.11,NNE,25,1.0,5.0,91,0.00,,,0.13,,2013-04-16 06:51:00,